Latest Coastal Weather Observations for Redcliffe

IDQ60701

Issued at 12:05 pm EST Thursday 23 October 2014 (issued every 10 minutes, with the page automatically refreshed every 10 minutes)

About coastal observations | Map of coastal stations | Coastal observations for QLD | Marine services | Other Formats
Station Details ID: 040958 Name: REDCLIFFE Lat: -27.22 Lon: 153.09 Height: 12.6 m
Data from the previous 72 hours. | See also: Recent months at Redcliffe
Date/Time
EST
Temp

°C
Wind Pressure Rain
since 9am
mm
Weather Cloud Vis
km
Sea
Height
m
Swell
Dir
 
Speed
knots
Gust
knots
hPa Trend Height
m
Period
s
Dir
23/12:00pm 23.7 ENE 11 13 1020.2 - 0.0 - - - - - - -
23/11:30am 23.1 ENE 9 11 1020.8 - 0.0 - - - - - - -
23/11:00am 22.5 ENE 8 9 1021.2 - 0.0 - - - - - - -
23/10:30am 22.9 ENE 5 7 1021.7 - 0.0 - - - - - - -
23/10:00am 22.7 ENE 5 7 1022.1 - 0.0 - - - - - - -
23/09:30am 21.9 ESE 5 6 1022.5 - 0.0 - - - - - - -
23/09:00am 21.6 SSE 7 8 1022.5 - 0.0 - - - - - - -
23/08:30am 21.5 SSE 8 8 1022.6 - 0.0 - - - - - - -
23/08:00am 21.1 S 7 8 1022.6 - 0.0 - - - - - - -
23/07:30am 19.9 SW 5 6 1022.7 - 0.0 - - - - - - -
23/07:00am 18.4 WSW 5 6 1022.4 - 0.0 - - - - - - -
23/06:30am 17.0 WSW 6 7 1022.3 - 0.0 - - - - - - -
23/06:00am 15.9 WSW 4 6 1022.1 - 0.0 - - - - - - -
23/05:30am 15.1 WSW 5 6 1022.0 - 0.0 - - - - - - -
23/05:00am 15.4 SW 6 7 1021.9 - 0.0 - - - - - - -
23/04:30am 15.9 SSW 7 8 1021.7 - 0.0 - - - - - - -
23/04:00am 16.1 SSW 5 7 1021.5 - 0.0 - - - - - - -
23/03:30am 16.5 ESE 6 8 1021.3 - 0.0 - - - - - - -
23/03:00am 16.9 E 6 7 1021.3 - 0.0 - - - - - - -
23/02:30am 18.2 ESE 6 8 1021.5 - 0.0 - - - - - - -
23/02:00am 19.0 ESE 8 10 1021.4 - 0.0 - - - - - - -
23/01:30am 18.8 E 7 8 1021.7 - 0.0 - - - - - - -
23/01:00am 19.0 ESE 8 9 1022.1 - 0.0 - - - - - - -
23/12:30am 19.4 ESE 8 10 1022.3 - 0.0 - - - - - - -
23/12:00am 19.6 E 11 14 1022.5 - 0.0 - - - - - - -
 
Date/Time
EST
Temp

°C
Wind Pressure Rain
since 9am
mm
Weather Cloud Vis
km
Sea
Height
m
Swell
Dir
 
Speed
knots
Gust
knots
hPa Trend Height
m
Period
s
Dir
22/11:30pm 19.6 ESE 9 11 1022.9 - 0.0 - - - - - - -
22/11:00pm 19.7 ESE 10 13 1023.2 - 0.0 - - - - - - -
22/10:30pm 19.8 ESE 9 14 1023.3 - 0.0 - - - - - - -
22/10:00pm 19.7 ESE 10 13 1023.3 - 0.0 - - - - - - -
22/09:30pm 19.9 ESE 10 14 1023.4 - 0.0 - - - - - - -
22/09:00pm 19.8 ESE 12 16 1023.4 - 0.0 - - - - - - -
22/08:30pm 19.9 ESE 11 16 1023.4 - 0.0 - - - - - - -
22/08:00pm 19.9 ESE 12 15 1023.2 - 0.0 - - - - - - -
22/07:30pm 19.9 SE 13 15 1023.2 - 0.0 - - - - - - -
22/07:00pm 19.8 ESE 12 16 1023.1 - 0.0 - - - - - - -
22/06:30pm 19.8 ESE 12 14 1023.0 - 0.0 - - - - - - -
22/06:00pm 20.0 ESE 13 16 1022.9 - 0.0 - - - - - - -
22/05:30pm 20.3 ESE 14 17 1022.8 - 0.0 - - - - - - -
22/05:00pm 20.7 ESE 15 22 1022.5 - 0.0 - - - - - - -
22/04:30pm 20.7 ESE 15 17 1022.4 - 0.0 - - - - - - -
22/04:00pm 20.8 ESE 16 19 1022.3 - 0.0 - - - - - - -
22/03:30pm 21.3 ESE 17 19 1022.3 - 0.0 - - - - - - -
22/03:00pm 21.8 E 17 21 1022.2 - 0.0 - - - - - - -
22/02:30pm 22.2 ESE 14 18 1022.4 - 0.0 - - - - - - -
22/02:00pm 21.3 ESE 14 17 1022.7 - 0.0 - - - - - - -
22/01:30pm 21.8 ESE 15 19 1022.9 - 0.0 - - - - - - -
22/01:00pm 21.8 ESE 17 21 1023.2 - 0.0 - - - - - - -
22/12:30pm 21.8 SE 17 19 1023.6 - 0.0 - - - - - - -
22/12:00pm 22.2 ESE 14 17 1024.1 - 0.0 - - - - - - -
22/11:30am 21.2 ESE 14 15 1024.5 - 0.0 - - - - - - -
22/11:00am 21.9 SE 17 19 1024.8 - 0.0 - - - - - - -
22/10:30am 21.4 SE 15 17 1025.0 - 0.0 - - - - - - -
22/10:00am 20.9 SE 16 20 1025.3 - 0.0 - - - - - - -
22/09:30am 20.6 SSE 16 20 1025.5 - 0.0 - - - - - - -
22/09:00am 21.2 SSE 13 16 1025.5 - 0.0 - - - - - - -
22/08:30am 20.4 S 11 15 1025.5 - 0.0 - - - - - - -
22/08:00am 19.6 S 12 16 1025.6 - 0.0 - - - - - - -
22/07:30am 19.8 S 14 17 1025.3 - 0.0 - - - - - - -
22/07:00am 19.3 SSW 10 15 1025.1 - 0.0 - - - - - - -
22/06:30am 18.4 S 11 17 1025.0 - 0.0 - - - - - - -
22/06:00am 17.8 S 13 16 1024.7 - 0.0 - - - - - - -
22/05:30am 17.4 SSW 9 12 1024.4 - 0.0 - - - - - - -
22/05:00am 17.5 S 10 17 1024.4 - 0.0 - - - - - - -
22/04:30am 17.4 S 12 15 1024.2 - 0.0 - - - - - - -
22/04:00am 17.4 S 14 16 1024.2 - 0.0 - - - - - - -
22/03:30am 17.6 S 13 17 1024.3 - 0.0 - - - - - - -
22/03:00am 17.7 S 14 17 1024.5 - 0.0 - - - - - - -
22/02:30am 17.1 S 11 16 1024.8 - 0.0 - - - - - - -
22/02:00am 17.5 S 17 23 1024.9 - 0.0 - - - - - - -
22/01:30am 18.1 S 18 20 1025.2 - 0.0 - - - - - - -
22/01:00am 18.1 S 17 19 1025.5 - 0.0 - - - - - - -
22/12:30am 18.3 S 20 25 1025.9 - 0.0 - - - - - - -
22/12:00am 18.0 S 17 20 1026.4 - 0.0 - - - - - - -
 
Date/Time
EST
Temp

°C
Wind Pressure Rain
since 9am
mm
Weather Cloud Vis
km
Sea
Height
m
Swell
Dir
 
Speed
knots
Gust
knots
hPa Trend Height
m
Period
s
Dir
21/11:30pm 18.0 S 17 21 1026.8 - 0.0 - - - - - - -
21/11:00pm 18.6 S 20 22 1027.1 - 0.0 - - - - - - -
21/10:30pm 18.7 SSE 20 25 1027.2 - 0.0 - - - - - - -
21/10:00pm 19.0 SSE 19 23 1027.1 - 0.0 - - - - - - -
21/09:30pm 19.3 SSE 24 29 1027.2 - 0.0 - - - - - - -
21/09:00pm 19.8 SSE 23 27 1027.0 - 0.0 - - - - - - -
21/08:30pm 20.0 SSE 24 28 1026.7 - 0.0 - - - - - - -
21/08:00pm 20.0 SSE 25 30 1026.6 - 0.0 - - - - - - -
21/07:30pm 20.3 SSE 21 26 1026.4 - 0.0 - - - - - - -
21/07:00pm 20.4 SSE 24 29 1026.2 - 0.0 - - - - - - -
21/06:30pm 20.4 SSE 24 30 1025.9 - 0.0 - - - - - - -
21/06:00pm 20.5 SSE 25 30 1025.6 - 0.0 - - - - - - -
21/05:30pm 20.9 SSE 26 29 1025.3 - 0.0 - - - - - - -
21/05:00pm 21.2 SE 25 29 1025.0 - 0.0 - - - - - - -
21/04:30pm 21.3 SSE 27 31 1024.7 - 0.0 - - - - - - -
21/04:00pm 21.4 SSE 26 31 1024.4 - 0.0 - - - - - - -
21/03:30pm 21.6 SSE 26 30 1024.2 - 0.0 - - - - - - -
21/03:00pm 21.9 SSE 26 31 1024.1 - 0.0 - - - - - - -
21/02:30pm 22.4 SSE 27 31 1024.1 - 0.0 - - - - - - -
21/02:00pm 22.9 SSE 25 30 1024.1 - 0.0 - - - - - - -
21/01:30pm 24.1 SE 25 28 1024.6 - 0.0 - - - - - - -
21/01:00pm 23.4 SE 23 27 1024.8 - 0.0 - - - - - - -
21/12:30pm 23.4 SE 23 27 1025.3 - 0.0 - - - - - - -
21/12:00pm 22.8 SE 25 29 1025.6 - 0.0 - - - - - - -
21/11:30am 23.2 SSE 23 27 1026.1 - 0.0 - - - - - - -
21/11:00am 22.8 SSE 24 28 1026.3 - 0.0 - - - - - - -
21/10:30am 22.8 SSE 23 28 1026.5 - 0.0 - - - - - - -
21/10:00am 22.1 SSE 24 28 1026.5 - 0.0 - - - - - - -
21/09:30am 21.6 SSE 25 31 1026.8 - 0.0 - - - - - - -
21/09:00am 21.6 SSE 22 28 1026.8 - 0.4 - - - - - - -
21/08:30am 20.6 SSE 20 26 1027.0 - 0.4 - - - - - - -
21/08:00am 19.6 SSE 15 21 1026.9 - 0.4 - - - - - - -
21/07:30am 18.6 SSE 18 22 1026.8 - 0.2 - - - - - - -
21/07:20am 18.7 ESE 16 17 1026.7 - 0.2 - - - - - - -
21/07:00am 18.9 SSE 26 30 1026.2 - 0.0 - - - - - - -
21/06:30am 18.2 S 21 28 1025.8 - 0.0 - - - - - - -
21/06:00am 18.8 S 19 25 1025.7 - 0.0 - - - - - - -
21/05:30am 20.2 SSE 21 26 1025.3 - 0.0 - - - - - - -
21/05:00am 20.2 SSE 15 18 1025.1 - 0.0 - - - - - - -
21/04:30am 20.1 SSE 14 17 1024.7 - 0.0 - - - - - - -
21/04:00am 19.9 SSE 12 14 1024.6 - 0.0 - - - - - - -
21/03:30am 19.4 S 11 13 1024.6 - 0.0 - - - - - - -
21/03:00am 19.8 S 7 8 1024.8 - 0.0 - - - - - - -
21/02:30am 19.5 S 9 11 1024.9 - 0.0 - - - - - - -
21/02:00am 19.1 S 10 13 1025.0 - 0.0 - - - - - - -
21/01:30am 19.1 S 11 13 1025.2 - 0.0 - - - - - - -
21/01:00am 19.2 S 11 13 1025.7 - 0.0 - - - - - - -
21/12:30am 19.5 S 9 10 1025.9 - 0.0 - - - - - - -
21/12:00am 20.7 SE 13 15 1026.1 - 0.0 - - - - - - -
 
Date/Time
EST
Temp

°C
Wind Pressure Rain
since 9am
mm
Weather Cloud Vis
km
Sea
Height
m
Swell
Dir
 
Speed
knots
Gust
knots
hPa Trend Height
m
Period
s
Dir
20/11:30pm 20.5 SSE 15 18 1026.4 - 0.0 - - - - - - -
20/11:00pm 20.6 SSE 16 19 1026.5 - 0.0 - - - - - - -
20/10:30pm 20.9 SSE 17 20 1026.6 - 0.0 - - - - - - -
20/10:00pm 21.0 SSE 15 17 1026.6 - 0.0 - - - - - - -
20/09:30pm 21.0 SE 14 16 1026.6 - 0.0 - - - - - - -
20/09:00pm 20.8 SE 13 15 1026.4 - 0.0 - - - - - - -
20/08:30pm 20.9 SE 11 14 1026.1 - 0.0 - - - - - - -
20/08:00pm 20.7 ESE 10 14 1025.7 - 0.0 - - - - - - -
20/07:30pm 20.7 E 9 10 1025.2 - 0.0 - - - - - - -
20/07:00pm 20.8 E 10 13 1024.7 - 0.0 - - - - - - -
20/06:30pm 21.0 E 10 12 1024.2 - 0.0 - - - - - - -
20/06:00pm 21.1 E 9 11 1023.6 - 0.0 - - - - - - -
20/05:30pm 21.4 NE 10 12 1023.2 - 0.0 - - - - - - -
20/05:00pm 21.7 NE 12 14 1022.7 - 0.0 - - - - - - -
20/04:30pm 22.3 NE 13 15 1022.4 - 0.0 - - - - - - -
20/04:00pm 22.5 NNE 13 15 1022.1 - 0.0 - - - - - - -
20/03:30pm 23.0 NNE 13 15 1022.0 - 0.0 - - - - - - -
20/03:00pm 22.9 NE 13 14 1022.0 - 0.0 - - - - - - -
20/02:30pm 22.7 NE 12 15 1021.9 - 0.0 - - - - - - -
20/02:00pm 22.8 NE 11 14 1022.2 - 0.0 - - - - - - -
20/01:30pm 23.1 NE 10 12 1022.7 - 0.0 - - - - - - -
20/01:00pm 23.0 ENE 10 11 1022.9 - 0.0 - - - - - - -
20/12:30pm 23.0 ENE 9 11 1023.3 - 0.0 - - - - - - -

Other Formats:

Comma delimited format used in spreadsheet applications
http://www.bom.gov.au/fwo/IDQ60701/IDQ60701.95591.axf

JavaScript Object Notation format (JSON) in row-major order
http://www.bom.gov.au/fwo/IDQ60701/IDQ60701.95591.json